Time;durP1;ratioP1;P1;durP2;ratioP2;P2;SDS_P1;SDS_P2;PMS_P1;PMS_P2;Temp;Humidity;BMP_temperature;BMP_pressure;BME280_temperature;BME280_humidity;BME280_pressure;Samples;Min_cycle;Max_cycle;Signal;HPM_P1;HPM_P2
2022/01/15 00:00:18;;;;;;;0.40;0.40;;;4.70;99.90;;;;;;5053488;28;20436;-66
2022/01/15 00:03:06;;;;;;;0.40;0.40;;;4.50;99.90;;;;;;5053602;28;20436;-66
2022/01/15 00:05:54;;;;;;;0.40;0.40;;;4.40;99.90;;;;;;5054332;28;20416;-66
2022/01/15 00:08:41;;;;;;;0.40;0.40;;;4.30;99.90;;;;;;5053728;28;20460;-66
2022/01/15 00:11:28;;;;;;;0.40;0.40;;;4.40;99.90;;;;;;5053077;28;20428;-66
2022/01/15 00:14:24;;;;;;;0.40;0.40;;;4.40;99.90;;;;;;5053916;28;20464;-66
2022/01/15 00:17:19;;;;;;;0.40;0.40;;;4.30;99.90;;;;;;5053651;28;20994;-66
2022/01/15 00:20:07;;;;;;;0.50;0.50;;;4.30;99.90;;;;;;5053747;28;20460;-66
2022/01/15 00:22:57;;;;;;;0.40;0.40;;;4.30;99.90;;;;;;5054145;28;20436;-66
2022/01/15 00:25:44;;;;;;;0.40;0.40;;;4.40;99.90;;;;;;5053738;28;20424;-66
2022/01/15 00:28:31;;;;;;;0.80;0.80;;;4.50;99.90;;;;;;5054606;28;20958;-67
2022/01/15 00:31:18;;;;;;;0.40;0.40;;;4.60;99.90;;;;;;5054877;28;20959;-66
2022/01/15 00:34:06;;;;;;;0.40;0.40;;;4.70;99.90;;;;;;5057623;28;20432;-65
2022/01/15 00:36:53;;;;;;;0.40;0.40;;;4.60;99.90;;;;;;5054970;28;20766;-66
2022/01/15 00:39:40;;;;;;;0.40;0.40;;;4.60;99.90;;;;;;5054354;28;20439;-66
2022/01/15 00:42:28;;;;;;;1.27;1.27;;;4.50;99.90;;;;;;5058670;28;20835;-66
2022/01/15 00:45:20;;;;;;;0.40;0.40;;;4.40;99.90;;;;;;5061527;28;20487;-67
2022/01/15 00:48:07;;;;;;;0.40;0.40;;;4.20;99.90;;;;;;5064438;28;20467;-67
2022/01/15 00:50:55;;;;;;;0.40;0.40;;;4.20;99.90;;;;;;5062990;28;20506;-66
2022/01/15 00:53:42;;;;;;;0.40;0.40;;;4.10;99.90;;;;;;5063594;28;20442;-67
2022/01/15 00:56:29;;;;;;;0.40;0.40;;;4.00;99.90;;;;;;5064626;28;20420;-66
2022/01/15 00:59:18;;;;;;;0.40;0.40;;;4.00;99.90;;;;;;5062611;28;20447;-66
2022/01/15 01:02:05;;;;;;;0.40;0.40;;;4.10;99.90;;;;;;5060173;28;20578;-66
2022/01/15 01:04:52;;;;;;;0.60;0.60;;;4.10;99.90;;;;;;5059042;28;20489;-67
2022/01/15 01:07:40;;;;;;;0.40;0.40;;;4.10;99.90;;;;;;5058778;28;20420;-67
2022/01/15 01:20:03;;;;;;;0.50;0.50;;;3.90;99.90;;;;;;5062065;28;20428;-66
2022/01/15 01:20:08;;;;;;;0.40;0.40;;;3.60;99.90;;;;;;5067134;28;20440;-66
2022/01/15 01:22:57;;;;;;;0.40;0.40;;;3.50;99.90;;;;;;5066647;28;20428;-66
2022/01/15 01:25:47;;;;;;;0.40;0.40;;;3.50;99.90;;;;;;5066308;28;20452;-66
2022/01/15 01:28:38;;;;;;;0.50;0.50;;;3.30;99.90;;;;;;5065285;28;20460;-66
2022/01/15 01:31:34;;;;;;;0.47;0.47;;;3.30;99.90;;;;;;5067919;28;20492;-66
2022/01/15 01:34:23;;;;;;;0.40;0.40;;;3.20;99.90;;;;;;5068573;28;20425;-66
2022/01/15 01:37:15;;;;;;;0.40;0.40;;;3.20;99.90;;;;;;5066698;28;20424;-66
2022/01/15 01:40:17;;;;;;;0.40;0.40;;;3.10;99.90;;;;;;5066618;28;20450;-66
2022/01/15 01:43:15;;;;;;;0.40;0.40;;;3.00;99.90;;;;;;5067045;28;20430;-66
2022/01/15 01:46:15;;;;;;;0.40;0.40;;;3.00;99.90;;;;;;5067280;28;20435;-67
2022/01/15 01:49:03;;;;;;;0.40;0.40;;;3.00;99.90;;;;;;5066945;28;20490;-66
2022/01/15 01:51:50;;;;;;;0.40;0.40;;;2.90;99.90;;;;;;5064884;28;20425;-66
2022/01/15 01:54:37;;;;;;;0.40;0.40;;;2.90;99.90;;;;;;5064319;28;20435;-66
2022/01/15 01:57:25;;;;;;;0.40;0.40;;;2.90;99.90;;;;;;5064037;28;20431;-66
2022/01/15 02:00:15;;;;;;;0.40;0.40;;;2.80;99.90;;;;;;5064196;28;20499;-66
2022/01/15 02:03:02;;;;;;;0.40;0.40;;;2.80;99.90;;;;;;5064472;28;20436;-66
2022/01/15 02:05:49;;;;;;;0.40;0.40;;;2.70;99.90;;;;;;5066347;28;20421;-66
2022/01/15 02:08:37;;;;;;;0.40;0.40;;;2.70;99.90;;;;;;5064423;28;20475;-66
2022/01/15 02:11:25;;;;;;;0.40;0.40;;;2.60;99.90;;;;;;5065624;28;20435;-66
2022/01/15 02:14:26;;;;;;;0.40;0.40;;;2.60;99.90;;;;;;5065886;28;20416;-66
2022/01/15 02:17:16;;;;;;;11.23;1.03;;;2.60;99.90;;;;;;5066086;28;20447;-67
2022/01/15 02:20:22;;;;;;;0.40;0.40;;;2.50;99.90;;;;;;5067781;28;20462;-66
2022/01/15 02:26:18;;;;;;;0.40;0.40;;;2.50;99.90;;;;;;5064756;28;20554;-66
2022/01/15 02:29:07;;;;;;;0.40;0.40;;;2.40;99.90;;;;;;5062371;28;20846;-66
2022/01/15 02:31:54;;;;;;;0.80;0.80;;;2.40;99.90;;;;;;5055076;28;20434;-66
2022/01/15 02:34:41;;;;;;;0.40;0.40;;;2.30;99.90;;;;;;5055151;28;20424;-66
2022/01/15 02:37:30;;;;;;;0.40;0.40;;;2.30;99.90;;;;;;5054902;28;20979;-66
2022/01/15 02:40:17;;;;;;;0.40;0.40;;;2.20;99.90;;;;;;5055066;28;20444;-66
2022/01/15 02:43:05;;;;;;;0.40;0.40;;;2.20;99.90;;;;;;5056399;28;20428;-66
2022/01/15 02:45:55;;;;;;;0.40;0.40;;;2.20;99.90;;;;;;5055606;28;20433;-66
2022/01/15 02:48:42;;;;;;;0.40;0.40;;;2.20;99.90;;;;;;5054877;28;20467;-66
2022/01/15 02:51:31;;;;;;;0.40;0.40;;;2.10;99.90;;;;;;5055415;28;20421;-66
2022/01/15 02:54:20;;;;;;;0.40;0.40;;;2.10;99.90;;;;;;5053592;28;20420;-66
2022/01/15 02:57:07;;;;;;;0.40;0.40;;;2.10;99.90;;;;;;5054703;28;20428;-66
2022/01/15 02:59:54;;;;;;;0.90;0.90;;;2.10;99.90;;;;;;5041140;28;20470;-66
2022/01/15 03:02:41;;;;;;;0.40;0.40;;;2.00;99.90;;;;;;5056185;28;20409;-66
2022/01/15 03:05:28;;;;;;;0.40;0.40;;;2.00;99.90;;;;;;5058998;28;20940;-66
2022/01/15 03:08:15;;;;;;;0.40;0.40;;;2.00;99.90;;;;;;5058511;28;20424;-66
2022/01/15 03:11:04;;;;;;;3.90;0.90;;;2.00;99.90;;;;;;5058699;28;20448;-66
2022/01/15 03:13:51;;;;;;;0.40;0.40;;;2.00;99.90;;;;;;5058482;28;21021;-66
2022/01/15 03:16:38;;;;;;;0.40;0.40;;;1.90;99.90;;;;;;5059027;28;20439;-66
2022/01/15 03:19:25;;;;;;;0.50;0.50;;;1.90;99.90;;;;;;5078158;22;20493;-69
2022/01/15 03:22:12;;;;;;;0.50;0.50;;;1.90;99.90;;;;;;5056261;28;20439;-68
2022/01/15 03:24:59;;;;;;;1.10;1.10;;;1.90;99.90;;;;;;5055842;28;20434;-68
2022/01/15 03:27:47;;;;;;;0.40;0.40;;;1.80;99.90;;;;;;5056943;28;20417;-69
2022/01/15 03:30:34;;;;;;;10.30;2.47;;;1.80;99.90;;;;;;5043453;28;20449;-68
2022/01/15 03:33:21;;;;;;;0.50;0.50;;;1.80;99.90;;;;;;5036168;28;20440;-68
2022/01/15 03:36:08;;;;;;;5.50;4.30;;;1.80;99.90;;;;;;5036882;28;20422;-68
2022/01/15 03:38:55;;;;;;;0.40;0.40;;;1.80;99.90;;;;;;5030759;28;20423;-69
2022/01/15 03:41:42;;;;;;;0.40;0.40;;;1.70;99.90;;;;;;5015345;28;20421;-68
2022/01/15 03:44:30;;;;;;;0.50;0.50;;;1.70;99.90;;;;;;5015109;28;20800;-69
2022/01/15 03:47:18;;;;;;;0.40;0.40;;;1.70;99.90;;;;;;5015202;28;20427;-69
2022/01/15 03:50:05;;;;;;;0.40;0.40;;;1.70;99.90;;;;;;5015017;28;20465;-69
2022/01/15 03:52:54;;;;;;;0.40;0.40;;;1.70;99.90;;;;;;5015281;28;20448;-69
2022/01/15 03:55:41;;;;;;;0.50;0.50;;;1.60;99.90;;;;;;5014826;28;20524;-69
2022/01/15 03:58:27;;;;;;;0.50;0.50;;;1.60;99.90;;;;;;5016139;28;20437;-70
2022/01/15 04:01:16;;;;;;;0.40;0.40;;;1.60;99.90;;;;;;5015255;28;20970;-69
2022/01/15 04:04:03;;;;;;;0.50;0.50;;;1.60;99.90;;;;;;5015084;28;20434;-69
2022/01/15 04:06:50;;;;;;;0.40;0.40;;;1.70;99.90;;;;;;5015876;28;20426;-69
2022/01/15 04:09:37;;;;;;;0.40;0.40;;;1.70;99.90;;;;;;5014502;28;20466;-69
2022/01/15 04:12:24;;;;;;;1.07;1.07;;;1.70;99.90;;;;;;5014310;28;20450;-69
2022/01/15 04:15:13;;;;;;;0.40;0.40;;;1.70;99.90;;;;;;5015268;28;20930;-67
2022/01/15 04:18:01;;;;;;;0.40;0.40;;;1.80;99.90;;;;;;5014077;28;20436;-69
2022/01/15 04:20:49;;;;;;;0.40;0.40;;;1.70;99.90;;;;;;5014153;28;20844;-69
2022/01/15 04:23:36;;;;;;;0.50;0.50;;;1.80;99.90;;;;;;5014715;28;20513;-69
2022/01/15 04:26:25;;;;;;;0.40;0.40;;;1.70;99.90;;;;;;5015292;28;20435;-70
2022/01/15 04:29:14;;;;;;;0.40;0.40;;;1.70;99.90;;;;;;5014896;28;21009;-69
2022/01/15 04:32:02;;;;;;;0.50;0.50;;;1.80;99.90;;;;;;5016041;28;20429;-70
2022/01/15 04:34:50;;;;;;;0.50;0.50;;;1.90;99.90;;;;;;5015279;28;20438;-67
2022/01/15 04:37:40;;;;;;;0.50;0.50;;;1.80;99.90;;;;;;5016030;28;20427;-71
2022/01/15 04:40:27;;;;;;;0.40;0.40;;;1.80;99.90;;;;;;5014964;28;20946;-67
2022/01/15 04:43:14;;;;;;;0.40;0.40;;;1.90;99.90;;;;;;5015938;28;21019;-68
2022/01/15 04:46:02;;;;;;;0.40;0.40;;;1.90;99.90;;;;;;5015600;28;20422;-68
2022/01/15 04:48:48;;;;;;;0.50;0.50;;;1.90;99.90;;;;;;5015782;28;20465;-67
2022/01/15 04:51:37;;;;;;;1.83;1.00;;;1.90;99.90;;;;;;5019004;28;20433;-68
2022/01/15 04:54:24;;;;;;;0.40;0.40;;;1.90;99.90;;;;;;5018503;28;20488;-68
2022/01/15 04:57:10;;;;;;;0.63;0.50;;;1.90;99.90;;;;;;5019302;28;20426;-68
2022/01/15 04:59:57;;;;;;;0.50;0.50;;;1.80;99.90;;;;;;5018159;28;20520;-68
2022/01/15 05:02:44;;;;;;;1.53;0.70;;;1.80;99.90;;;;;;5018774;28;20679;-68
2022/01/15 05:05:32;;;;;;;0.40;0.40;;;1.80;99.90;;;;;;5018041;28;20425;-68
2022/01/15 05:08:20;;;;;;;0.40;0.40;;;1.70;99.90;;;;;;5018559;28;20508;-68
2022/01/15 05:11:14;;;;;;;0.40;0.40;;;1.70;99.90;;;;;;5018482;28;20449;-67
2022/01/15 05:14:01;;;;;;;0.40;0.40;;;1.60;99.90;;;;;;5018354;28;20712;-68
2022/01/15 05:16:48;;;;;;;0.50;0.50;;;1.60;99.90;;;;;;5018187;28;20961;-67
2022/01/15 05:19:35;;;;;;;0.70;0.70;;;1.60;99.90;;;;;;5017692;28;20453;-67
2022/01/15 05:22:22;;;;;;;0.40;0.40;;;1.60;99.90;;;;;;5018297;28;20421;-67
2022/01/15 05:25:13;;;;;;;0.40;0.40;;;1.60;99.90;;;;;;5017875;28;20422;-68
2022/01/15 05:28:00;;;;;;;1.00;0.93;;;1.60;99.90;;;;;;5017804;28;20544;-68
2022/01/15 05:30:47;;;;;;;0.50;0.50;;;1.70;99.90;;;;;;5017951;28;20470;-69
2022/01/15 05:33:34;;;;;;;2.00;0.90;;;1.70;99.90;;;;;;5019080;28;20643;-68
2022/01/15 05:36:21;;;;;;;0.40;0.40;;;1.70;99.90;;;;;;5018060;28;20541;-68
2022/01/15 05:39:08;;;;;;;0.40;0.40;;;1.70;99.90;;;;;;5018484;28;20472;-67
2022/01/15 05:41:57;;;;;;;0.47;0.47;;;1.60;99.90;;;;;;5019915;28;20525;-69
2022/01/15 05:44:44;;;;;;;0.40;0.40;;;1.70;99.90;;;;;;5017705;28;20477;-68
2022/01/15 05:47:31;;;;;;;2.00;1.90;;;1.70;99.90;;;;;;5017412;28;20433;-68
2022/01/15 05:50:18;;;;;;;0.50;0.50;;;1.70;99.90;;;;;;5017483;28;20476;-68
2022/01/15 05:53:05;;;;;;;0.60;0.60;;;1.60;99.90;;;;;;5017707;28;20476;-68
2022/01/15 05:55:52;;;;;;;0.57;0.57;;;1.70;99.90;;;;;;5017884;28;20434;-68
2022/01/15 05:58:40;;;;;;;0.50;0.50;;;1.70;99.90;;;;;;5017506;28;20418;-67
2022/01/15 06:01:27;;;;;;;0.97;0.97;;;1.70;99.90;;;;;;5017667;28;20426;-70
2022/01/15 06:04:14;;;;;;;0.40;0.40;;;1.70;99.90;;;;;;5018056;28;20437;-71
2022/01/15 06:07:01;;;;;;;0.40;0.40;;;1.60;99.90;;;;;;5017852;28;20429;-69
2022/01/15 06:09:48;;;;;;;0.50;0.50;;;1.60;99.90;;;;;;5017263;28;20478;-69
2022/01/15 06:12:42;;;;;;;0.50;0.50;;;1.60;99.90;;;;;;5018478;28;20426;-68
2022/01/15 06:15:30;;;;;;;0.50;0.50;;;1.60;99.90;;;;;;5016809;28;20969;-68
2022/01/15 06:18:17;;;;;;;0.40;0.40;;;1.60;99.90;;;;;;5016804;28;20418;-68
2022/01/15 06:21:04;;;;;;;1.77;0.57;;;1.50;99.90;;;;;;5016873;28;20480;-69
2022/01/15 06:23:51;;;;;;;0.50;0.50;;;1.60;99.90;;;;;;5017630;28;20427;-69
2022/01/15 06:26:38;;;;;;;0.40;0.40;;;1.60;99.90;;;;;;5016663;28;20426;-68
2022/01/15 06:29:25;;;;;;;0.40;0.40;;;1.70;99.90;;;;;;5017051;28;20468;-68
2022/01/15 06:32:13;;;;;;;0.50;0.50;;;1.70;99.90;;;;;;5017906;28;20433;-68
2022/01/15 06:35:00;;;;;;;0.40;0.40;;;1.60;99.90;;;;;;5017575;28;20426;-68
2022/01/15 06:37:48;;;;;;;0.40;0.40;;;1.60;99.90;;;;;;5020120;28;20429;-69
2022/01/15 06:40:35;;;;;;;0.40;0.40;;;1.70;99.90;;;;;;5018941;28;20529;-69
2022/01/15 06:43:22;;;;;;;0.40;0.40;;;1.70;99.90;;;;;;5015919;28;20476;-68
2022/01/15 06:46:09;;;;;;;0.40;0.40;;;1.80;99.90;;;;;;5016732;28;20440;-68
2022/01/15 06:48:57;;;;;;;0.43;0.43;;;1.80;99.90;;;;;;5017370;28;20815;-68
2022/01/15 06:51:44;;;;;;;0.40;0.40;;;1.70;99.90;;;;;;5017020;28;20426;-67
2022/01/15 06:54:31;;;;;;;0.40;0.40;;;1.70;99.90;;;;;;5016196;28;20425;-68
2022/01/15 06:57:18;;;;;;;0.50;0.50;;;1.60;99.90;;;;;;5016777;28;20415;-69
2022/01/15 07:00:10;;;;;;;8.03;2.20;;;1.60;99.90;;;;;;5015734;28;20792;-68
2022/01/15 07:03:00;;;;;;;0.60;0.60;;;1.60;99.90;;;;;;5016610;28;20426;-68
2022/01/15 07:05:48;;;;;;;2.13;1.33;;;1.60;99.90;;;;;;5016092;28;20427;-68
2022/01/15 07:08:35;;;;;;;0.40;0.40;;;1.60;99.90;;;;;;5016039;28;20414;-68
2022/01/15 07:11:22;;;;;;;2.70;1.30;;;1.60;99.90;;;;;;5016544;28;21055;-68
2022/01/15 07:14:09;;;;;;;0.70;0.70;;;1.70;99.90;;;;;;5015912;28;20449;-70
2022/01/15 07:16:56;;;;;;;0.40;0.40;;;1.70;99.90;;;;;;5015729;28;20426;-69
2022/01/15 07:19:43;;;;;;;0.40;0.40;;;1.70;99.90;;;;;;5014642;28;20466;-68
2022/01/15 07:22:32;;;;;;;0.40;0.40;;;1.70;99.90;;;;;;5015987;28;20437;-68
2022/01/15 07:25:19;;;;;;;1.17;1.07;;;1.70;99.90;;;;;;5016406;28;20426;-68
2022/01/15 07:28:06;;;;;;;0.60;0.60;;;1.70;99.90;;;;;;5016081;28;20976;-68
2022/01/15 07:30:52;;;;;;;0.80;0.80;;;1.80;99.90;;;;;;5015425;28;20473;-68
2022/01/15 07:33:39;;;;;;;0.40;0.40;;;1.70;99.90;;;;;;5016687;28;20430;-69
2022/01/15 07:36:26;;;;;;;0.40;0.40;;;1.80;99.90;;;;;;5016049;28;20425;-68
2022/01/15 07:39:15;;;;;;;0.40;0.40;;;1.90;99.90;;;;;;5033260;28;20437;-67
2022/01/15 07:42:03;;;;;;;0.40;0.40;;;1.80;99.90;;;;;;5036619;28;20534;-71
2022/01/15 07:44:49;;;;;;;0.90;0.70;;;1.80;99.90;;;;;;5034930;28;20461;-67
2022/01/15 07:47:37;;;;;;;0.47;0.47;;;1.90;99.90;;;;;;5033726;28;20430;-67
2022/01/15 07:50:24;;;;;;;3.80;1.83;;;1.80;99.90;;;;;;5032700;28;21075;-69
2022/01/15 07:53:11;;;;;;;1.40;0.60;;;1.70;99.90;;;;;;5026152;28;20426;-69
2022/01/15 07:55:59;;;;;;;5.47;2.30;;;1.60;99.90;;;;;;5015591;28;20509;-68
2022/01/15 07:58:47;;;;;;;0.50;0.50;;;1.70;99.90;;;;;;5016322;28;20442;-69
2022/01/15 08:01:34;;;;;;;0.50;0.40;;;1.60;99.90;;;;;;5016919;28;20422;-69
2022/01/15 08:04:21;;;;;;;1.97;1.87;;;1.60;99.90;;;;;;5016449;28;20457;-68
2022/01/15 08:07:09;;;;;;;0.63;0.63;;;1.60;99.90;;;;;;5014527;28;20435;-69
2022/01/15 08:09:56;;;;;;;1.03;0.70;;;1.70;99.90;;;;;;5015957;28;20472;-68
2022/01/15 08:12:45;;;;;;;0.40;0.40;;;1.70;99.90;;;;;;5016390;28;20429;-69
2022/01/15 08:15:33;;;;;;;0.40;0.40;;;1.80;99.90;;;;;;5015834;28;20426;-70
2022/01/15 08:18:21;;;;;;;1.53;1.53;;;1.90;99.90;;;;;;5016242;28;20452;-69
2022/01/15 08:21:08;;;;;;;0.40;0.40;;;1.90;99.90;;;;;;5015676;28;20516;-70
2022/01/15 08:23:55;;;;;;;1.47;1.37;;;2.00;99.90;;;;;;5016481;28;20430;-69
2022/01/15 08:26:42;;;;;;;0.97;0.53;;;2.00;99.90;;;;;;5016283;28;20434;-69
2022/01/15 08:29:30;;;;;;;0.40;0.40;;;2.00;99.90;;;;;;5015430;28;20457;-69
2022/01/15 08:32:17;;;;;;;0.60;0.60;;;2.00;99.90;;;;;;5017771;28;20425;-69
2022/01/15 08:35:06;;;;;;;1.53;1.17;;;2.00;99.90;;;;;;5017483;28;20993;-69
2022/01/15 08:37:54;;;;;;;0.40;0.40;;;2.00;99.90;;;;;;5015040;28;20424;-69
2022/01/15 08:40:42;;;;;;;0.80;0.80;;;2.00;99.90;;;;;;5015748;28;20949;-70
2022/01/15 08:43:29;;;;;;;0.80;0.80;;;2.10;99.90;;;;;;5015722;28;20422;-69
2022/01/15 08:46:18;;;;;;;1.20;1.13;;;2.20;99.90;;;;;;5016402;28;20844;-69
2022/01/15 08:49:05;;;;;;;0.40;0.40;;;2.30;99.90;;;;;;5016937;28;20517;-70
2022/01/15 08:51:51;;;;;;;0.40;0.40;;;2.20;99.90;;;;;;5016463;28;20472;-69
2022/01/15 08:54:38;;;;;;;0.40;0.40;;;2.20;99.90;;;;;;5016512;28;20803;-70
2022/01/15 08:57:25;;;;;;;0.40;0.40;;;2.30;99.90;;;;;;5015368;28;20426;-70
2022/01/15 09:00:15;;;;;;;2.93;1.13;;;2.40;99.90;;;;;;5017709;28;20445;-73
2022/01/15 09:03:06;;;;;;;0.70;0.70;;;2.40;99.90;;;;;;5015130;28;20430;-69
2022/01/15 09:05:53;;;;;;;0.50;0.50;;;2.30;99.90;;;;;;5015810;28;20422;-70
2022/01/15 09:08:42;;;;;;;0.60;0.60;;;2.40;99.90;;;;;;5016169;28;20426;-70
2022/01/15 09:11:29;;;;;;;0.40;0.40;;;2.40;99.90;;;;;;5016219;28;20477;-70
2022/01/15 09:14:16;;;;;;;0.50;0.50;;;2.40;99.90;;;;;;5016583;28;20481;-70
2022/01/15 09:17:03;;;;;;;0.40;0.40;;;2.60;99.90;;;;;;5016123;28;20426;-69
2022/01/15 09:19:51;;;;;;;0.50;0.50;;;2.70;99.90;;;;;;5031519;22;21472;-66
2022/01/15 09:22:39;;;;;;;0.40;0.40;;;2.90;99.90;;;;;;5035200;28;20983;-66
2022/01/15 09:25:27;;;;;;;0.40;0.40;;;3.00;99.90;;;;;;5034693;28;20417;-66
2022/01/15 09:31:19;;;;;;;0.43;0.43;;;3.10;99.90;;;;;;5033644;28;20492;-66
2022/01/15 09:34:05;;;;;;;0.40;0.40;;;3.00;99.90;;;;;;5034489;28;20429;-66
2022/01/15 09:36:54;;;;;;;0.40;0.40;;;3.10;99.90;;;;;;5036942;28;20432;-66
2022/01/15 09:39:42;;;;;;;0.40;0.40;;;3.20;99.90;;;;;;5038128;28;20417;-66
2022/01/15 09:42:29;;;;;;;0.40;0.40;;;3.20;99.90;;;;;;5037514;28;20422;-66
2022/01/15 09:45:18;;;;;;;0.50;0.50;;;3.40;99.90;;;;;;5035959;28;20429;-66
2022/01/15 09:48:06;;;;;;;0.40;0.40;;;3.40;99.90;;;;;;5037680;28;20452;-67
2022/01/15 09:50:54;;;;;;;0.50;0.50;;;3.40;99.90;;;;;;5036931;28;20465;-66
2022/01/15 09:53:42;;;;;;;0.40;0.40;;;3.30;99.90;;;;;;5037330;28;20514;-66
2022/01/15 09:56:29;;;;;;;0.40;0.40;;;3.20;99.90;;;;;;5037257;28;20509;-66
2022/01/15 09:59:16;;;;;;;0.40;0.40;;;3.10;99.90;;;;;;5036739;28;20430;-66
2022/01/15 10:02:04;;;;;;;0.47;0.47;;;3.10;99.90;;;;;;5037610;28;20948;-66
2022/01/15 10:04:51;;;;;;;0.40;0.40;;;3.10;99.90;;;;;;5035223;28;20446;-66
2022/01/15 10:07:39;;;;;;;0.40;0.40;;;3.00;99.90;;;;;;5035958;28;20448;-66
2022/01/15 10:10:29;;;;;;;3.73;3.53;;;3.10;99.90;;;;;;5036873;28;20982;-66
2022/01/15 10:13:18;;;;;;;0.40;0.40;;;3.20;99.90;;;;;;5036587;28;20425;-66
2022/01/15 10:16:17;;;;;;;0.40;0.40;;;3.20;99.90;;;;;;5036586;28;21056;-66
2022/01/15 10:19:04;;;;;;;0.40;0.40;;;3.30;99.90;;;;;;5037127;28;20425;-66
2022/01/15 10:22:05;;;;;;;0.40;0.40;;;3.50;99.90;;;;;;5036125;28;20440;-66
2022/01/15 10:24:56;;;;;;;0.40;0.40;;;3.50;99.90;;;;;;5037030;28;20432;-66
2022/01/15 10:27:46;;;;;;;0.40;0.40;;;3.60;99.90;;;;;;5037018;28;20429;-66
2022/01/15 10:30:33;;;;;;;0.50;0.50;;;3.80;99.90;;;;;;5036856;28;20469;-66
2022/01/15 10:33:21;;;;;;;0.40;0.40;;;3.80;99.90;;;;;;5038728;28;20452;-66
2022/01/15 10:36:20;;;;;;;0.40;0.40;;;3.90;99.90;;;;;;5036971;28;20870;-66
2022/01/15 10:39:14;;;;;;;0.40;0.40;;;3.90;99.90;;;;;;5043382;28;20421;-66
2022/01/15 10:42:01;;;;;;;0.40;0.40;;;4.00;99.90;;;;;;5044723;28;20414;-66
2022/01/15 10:44:50;;;;;;;0.40;0.40;;;4.20;99.90;;;;;;5040560;28;20475;-66
2022/01/15 10:47:42;;;;;;;0.40;0.40;;;4.50;99.90;;;;;;5048007;28;20421;-67
2022/01/15 10:50:31;;;;;;;0.40;0.40;;;4.60;99.90;;;;;;5050450;28;20456;-66
2022/01/15 10:53:18;;;;;;;0.40;0.40;;;4.70;99.90;;;;;;5053745;28;20421;-67
2022/01/15 10:56:07;;;;;;;0.40;0.40;;;4.60;99.90;;;;;;5049192;28;20470;-67
2022/01/15 10:59:08;;;;;;;1.17;1.07;;;4.50;99.90;;;;;;5042635;28;20429;-66
2022/01/15 11:02:16;;;;;;;0.40;0.40;;;4.40;99.90;;;;;;5049444;28;20430;-66
2022/01/15 11:05:19;;;;;;;0.40;0.40;;;4.40;99.90;;;;;;5053571;28;20437;-66
2022/01/15 11:08:12;;;;;;;19.27;1.80;;;4.60;99.90;;;;;;5053499;28;20455;-66
2022/01/15 11:11:02;;;;;;;0.40;0.40;;;4.50;99.90;;;;;;5053080;28;20460;-66
2022/01/15 11:13:49;;;;;;;0.40;0.40;;;4.30;99.90;;;;;;5053850;28;20433;-66
2022/01/15 11:16:36;;;;;;;0.40;0.40;;;4.20;99.90;;;;;;5054254;28;20460;-66
2022/01/15 11:19:25;;;;;;;0.40;0.40;;;4.10;99.90;;;;;;5054132;28;20429;-66
2022/01/15 11:22:19;;;;;;;0.40;0.40;;;4.10;99.90;;;;;;5054619;28;20432;-66
2022/01/15 11:25:06;;;;;;;0.40;0.40;;;4.30;99.90;;;;;;5055061;28;20426;-66
2022/01/15 11:27:54;;;;;;;1.23;1.13;;;4.70;99.90;;;;;;5054305;28;20425;-66
2022/01/15 11:30:42;;;;;;;0.40;0.40;;;5.00;99.90;;;;;;5054649;28;20445;-66
2022/01/15 11:33:31;;;;;;;0.40;0.40;;;5.30;99.90;;;;;;5053675;28;20433;-66
2022/01/15 11:36:32;;;;;;;0.40;0.40;;;5.40;99.90;;;;;;5054254;28;20425;-67
2022/01/15 11:39:22;;;;;;;0.40;0.40;;;5.40;99.90;;;;;;5054029;28;20436;-66
2022/01/15 11:42:25;;;;;;;0.40;0.40;;;5.50;99.90;;;;;;5048375;28;20421;-67
2022/01/15 11:45:35;;;;;;;0.40;0.40;;;5.30;99.90;;;;;;5037710;28;20436;-67
2022/01/15 11:48:24;;;;;;;0.40;0.40;;;5.30;99.90;;;;;;5036422;28;20425;-66
2022/01/15 11:51:30;;;;;;;0.40;0.40;;;5.30;99.90;;;;;;5038094;28;20469;-67
2022/01/15 11:54:17;;;;;;;0.40;0.40;;;5.20;99.90;;;;;;5039397;28;20425;-67
2022/01/15 11:57:19;;;;;;;0.40;0.40;;;5.40;99.90;;;;;;5037932;28;20417;-67
2022/01/15 12:00:16;;;;;;;4.43;0.83;;;5.50;99.90;;;;;;5035305;28;20460;-67
2022/01/15 12:03:14;;;;;;;0.40;0.40;;;5.60;99.90;;;;;;5035462;28;20421;-67
2022/01/15 12:06:02;;;;;;;0.40;0.40;;;5.70;99.90;;;;;;5036938;28;20425;-67
2022/01/15 12:08:50;;;;;;;0.40;0.40;;;5.80;99.90;;;;;;5036241;28;20421;-67
2022/01/15 12:11:37;;;;;;;0.40;0.40;;;5.80;99.90;;;;;;5036218;28;20475;-67
2022/01/15 12:14:48;;;;;;;0.40;0.40;;;5.70;99.90;;;;;;5036225;28;20437;-67
2022/01/15 12:17:38;;;;;;;0.40;0.40;;;5.60;99.90;;;;;;5036827;28;20440;-67
2022/01/15 12:20:34;;;;;;;0.40;0.40;;;5.60;99.90;;;;;;5036168;28;20467;-66
2022/01/15 12:23:27;;;;;;;0.40;0.40;;;5.40;99.90;;;;;;5036612;28;20417;-66
2022/01/15 12:26:16;;;;;;;0.40;0.40;;;5.30;99.90;;;;;;5035832;28;20520;-67
2022/01/15 12:29:03;;;;;;;0.40;0.40;;;5.30;99.90;;;;;;5035558;28;20421;-66
2022/01/15 12:31:50;;;;;;;1.70;1.50;;;5.40;99.90;;;;;;5034750;28;21021;-66
2022/01/15 12:34:37;;;;;;;0.50;0.50;;;5.40;99.90;;;;;;5036311;28;20456;-66
2022/01/15 12:37:25;;;;;;;0.40;0.40;;;5.40;99.90;;;;;;5034790;28;20425;-67
2022/01/15 12:40:12;;;;;;;0.40;0.40;;;5.30;99.90;;;;;;5035057;28;20832;-66
2022/01/15 12:43:03;;;;;;;0.40;0.40;;;5.30;99.90;;;;;;5035406;28;20428;-67
2022/01/15 12:45:52;;;;;;;0.40;0.40;;;5.40;99.90;;;;;;5035070;28;20446;-66
2022/01/15 12:48:43;;;;;;;0.40;0.40;;;5.40;99.90;;;;;;5035252;28;20429;-67
2022/01/15 12:51:31;;;;;;;0.70;0.63;;;5.30;99.90;;;;;;5035126;28;20505;-67
2022/01/15 12:54:30;;;;;;;0.40;0.40;;;5.40;99.90;;;;;;5035135;28;20822;-66
2022/01/15 12:57:40;;;;;;;0.40;0.40;;;5.50;99.90;;;;;;5034789;28;20429;-67
2022/01/15 13:00:30;;;;;;;0.40;0.40;;;5.50;99.90;;;;;;5034331;28;20538;-66
2022/01/15 13:03:21;;;;;;;0.40;0.40;;;5.60;99.90;;;;;;5034829;28;20937;-67
2022/01/15 13:06:09;;;;;;;0.90;0.90;;;5.70;99.90;;;;;;5034165;28;20425;-67
2022/01/15 13:08:59;;;;;;;0.40;0.40;;;5.80;99.90;;;;;;5033857;28;20421;-67
2022/01/15 13:11:57;;;;;;;0.40;0.40;;;5.80;99.90;;;;;;5037509;28;20469;-67
2022/01/15 13:14:45;;;;;;;0.40;0.40;;;5.80;99.90;;;;;;5037041;28;20448;-67
2022/01/15 13:17:33;;;;;;;0.40;0.40;;;5.90;99.90;;;;;;5038852;28;20432;-67
2022/01/15 13:20:32;;;;;;;13.30;2.67;;;5.80;99.90;;;;;;5037422;28;20475;-67
2022/01/15 13:23:20;;;;;;;0.40;0.40;;;5.80;99.90;;;;;;5038413;28;20432;-67
2022/01/15 13:26:09;;;;;;;0.40;0.40;;;5.80;99.90;;;;;;5037730;28;20421;-67
2022/01/15 13:28:58;;;;;;;0.40;0.40;;;5.60;99.90;;;;;;5037847;28;20432;-69
2022/01/15 13:31:47;;;;;;;0.40;0.40;;;5.60;99.90;;;;;;5037385;28;20529;-68
2022/01/15 13:34:36;;;;;;;0.40;0.40;;;5.70;99.90;;;;;;5037771;28;20508;-67
2022/01/15 13:37:23;;;;;;;0.40;0.40;;;5.70;99.90;;;;;;5037390;28;20937;-67
2022/01/15 13:40:11;;;;;;;0.40;0.40;;;5.60;99.90;;;;;;5037243;28;20444;-67
2022/01/15 13:42:59;;;;;;;0.40;0.40;;;5.60;99.90;;;;;;5037873;28;20952;-67
2022/01/15 13:45:46;;;;;;;0.40;0.40;;;5.60;99.90;;;;;;5036875;28;20433;-67
2022/01/15 13:48:33;;;;;;;0.40;0.40;;;5.60;99.90;;;;;;5037321;28;20968;-66
2022/01/15 13:54:27;;;;;;;0.40;0.40;;;5.40;99.90;;;;;;5036390;28;20511;-66
2022/01/15 13:57:15;;;;;;;2.00;1.00;;;5.40;99.90;;;;;;5037070;28;20425;-66
2022/01/15 14:00:06;;;;;;;0.40;0.40;;;5.20;99.90;;;;;;5036840;28;20817;-66
2022/01/15 14:02:55;;;;;;;0.40;0.40;;;5.20;99.90;;;;;;5036892;28;20427;-66
2022/01/15 14:05:42;;;;;;;0.40;0.40;;;5.20;99.90;;;;;;5037100;28;20444;-66
2022/01/15 14:08:30;;;;;;;0.40;0.40;;;5.20;99.90;;;;;;5037105;28;20440;-66
2022/01/15 14:11:18;;;;;;;0.40;0.40;;;5.20;99.90;;;;;;5036764;28;20448;-66
2022/01/15 14:14:07;;;;;;;0.40;0.40;;;5.30;99.90;;;;;;5037358;28;20432;-67
2022/01/15 14:16:55;;;;;;;0.40;0.40;;;5.20;99.90;;;;;;5037830;28;20811;-67
2022/01/15 14:22:49;;;;;;;0.50;0.50;;;5.30;99.90;;;;;;5037494;28;20413;-67
2022/01/15 14:25:39;;;;;;;1.67;0.87;;;5.20;99.90;;;;;;5036844;28;20444;-66
2022/01/15 14:28:27;;;;;;;0.40;0.40;;;5.20;99.90;;;;;;5036082;28;20925;-66
2022/01/15 14:31:14;;;;;;;0.40;0.40;;;5.10;99.90;;;;;;5035912;28;20527;-67
2022/01/15 14:34:06;;;;;;;0.40;0.40;;;5.10;99.90;;;;;;5036914;28;20432;-66
2022/01/15 14:36:53;;;;;;;0.40;0.40;;;5.00;99.90;;;;;;5036981;28;20421;-67
2022/01/15 14:39:42;;;;;;;0.40;0.40;;;5.00;99.90;;;;;;5035928;28;21063;-67
2022/01/15 14:42:30;;;;;;;0.50;0.50;;;4.90;99.90;;;;;;5035970;28;20532;-67
2022/01/15 14:45:18;;;;;;;0.40;0.40;;;5.00;99.90;;;;;;5036114;28;20432;-69
2022/01/15 14:48:05;;;;;;;0.40;0.40;;;4.90;99.90;;;;;;5035704;28;20417;-67
2022/01/15 14:50:52;;;;;;;0.40;0.40;;;5.00;99.90;;;;;;5035184;28;20447;-67
2022/01/15 14:53:39;;;;;;;0.40;0.40;;;4.90;99.90;;;;;;5036706;28;20456;-67
2022/01/15 14:56:26;;;;;;;0.40;0.40;;;4.90;99.90;;;;;;5036763;28;20432;-67
2022/01/15 14:59:14;;;;;;;1.90;1.07;;;4.90;99.90;;;;;;5035858;28;20428;-68
2022/01/15 15:02:01;;;;;;;0.40;0.40;;;5.00;99.90;;;;;;5036648;28;20925;-68
2022/01/15 15:04:48;;;;;;;0.40;0.40;;;5.00;99.90;;;;;;5037729;28;20448;-68
2022/01/15 15:07:35;;;;;;;0.40;0.40;;;4.90;99.90;;;;;;5037790;28;20436;-68
2022/01/15 15:10:22;;;;;;;0.40;0.40;;;4.90;99.90;;;;;;5036900;28;20452;-68